Search for airport 
image banner adimage banner adimage banner ad
image banner ad

23PA - Cedar Acres Private Group

Located in Revere, United States

ICAO - 23PA, IATA -

Data provided by Airmate  

General information

Coordinates: N40°29'54" W75°8'50"
Elevation is 500 feet MSL.
Magnetic variation is -12° East
View others Airports in Pennsylvania

Operational data

Special qualification required
Current time UTC:
Current local time:
Weather at : KCKZ - Pennridge ( 17 km )
METAR: KCKZ 270535Z AUTO 00000KT 10SM SCT085 18/18 A2998 RMK AO2
View NOTAMs / SUP AIP / TFR affecting this airport [VIEW]
Communications frequencies: [VIEW]

Runways:

RWY identifierQFULength (ft)Width (ft)SurfaceLDA (ft)
N1800100GRASS
S1800100GRASS

Airport contact information

Address: Revere United States

Satellite view of 23PA